Coral Coast — WDF5120 — position and weather

sailwx.info

Track history (hours):
 
Tides and Currents Weather Stations Pressure Air Temp Water Temp Dewpoint Dewpoint Depression Visibility Wind Speed Wind Dir Waves Ship Positions

Coral Coast

Owner: Dann MarineTowing, LC., Chesapeake City, MD. More information available from US FCC via Universal Licensing System and Coast Guard Vessel Documentation Center.

Last reported at 2014-Oct-29 16:12 UTC. Time now 2014-Oct-31 23:08 UTC.
Position N 39°21' W 074°15'.

Length 70 m; draft 5.3 m.

Type: Tug. MMSI: 367459570.

Date/timePositionNaut miles runAvg speedWind from/ knotsBaromVisibWave heightAir tempDewpointWater temp
2014-Oct-29 16:12N 39°21' W 074°15'6 8.5
2014-Oct-29 15:33N 39°26' W 074°11'9 8.6
2014-Oct-29 14:33N 39°33' W 074°05'9 8.8
2014-Oct-29 13:33N 39°41' W 074°00'9 8.8
2014-Oct-29 12:31N 39°50' W 073°57'28 9.0
2014-Oct-29 09:21N 40°18' W 073°54'7 9.1
2014-Oct-29 08:33N 40°26' W 073°54'8 8.5
2014-Oct-29 07:33N 40°32' W 074°01'8 8.2
2014-Oct-29 06:33N 40°40' W 074°01'8 7.6
2014-Oct-29 05:34N 40°47' W 073°56'4 3.5
2014-Oct-29 04:31N 40°47' W 073°51'1 0.6
2014-Oct-29 03:10N 40°46' W 073°51'0 0.0
2014-Oct-29 02:33N 40°46' W 073°51'0 0.0
2014-Oct-29 01:33N 40°46' W 073°51'0 0.0
2014-Oct-29 00:33N 40°46' W 073°51'0 0.0
2014-Oct-28 23:27N 40°46' W 073°51'0 0.0
2014-Oct-28 22:33N 40°46' W 073°51'1 0.6
2014-Oct-28 21:33N 40°46' W 073°51'6 5.7
2014-Oct-28 20:33N 40°44' W 073°58'9 8.7
2014-Oct-28 19:33N 40°39' W 074°07'0 0.2
2014-Oct-28 18:33N 40°39' W 074°07'1 1.3
2014-Oct-28 17:33N 40°39' W 074°09'6 6.3
2014-Oct-28 16:33N 40°40' W 074°01'0 0.0
2014-Oct-28 15:33N 40°40' W 074°01'0 0.0
2014-Oct-28 14:33N 40°40' W 074°01'0 0.0
2014-Oct-28 13:33N 40°40' W 074°01'0 0.0
2014-Oct-28 12:33N 40°40' W 074°01'8 7.5
2014-Oct-28 11:33N 40°47' W 073°56'4 4.2
2014-Oct-28 10:33N 40°46' W 073°51'0 0.0
2014-Oct-28 09:33N 40°46' W 073°51'0 0.0
2014-Oct-28 08:31N 40°46' W 073°51'0 0.0
2014-Oct-28 07:33N 40°46' W 073°51'0 0.0
2014-Oct-28 06:33N 40°46' W 073°51'0 0.0
2014-Oct-28 05:33N 40°46' W 073°51'2 2.3
2014-Oct-28 04:33N 40°48' W 073°50'0 0.1
2014-Oct-28 03:33N 40°48' W 073°50'0 0.2
2014-Oct-28 02:33N 40°48' W 073°50'1 0.5
2014-Oct-28 01:32N 40°48' W 073°49'1 0.5
2014-Oct-28 00:32N 40°48' W 073°49'2 2.5
2014-Oct-27 23:33N 40°48' W 073°52'4 3.7
2014-Oct-27 22:33N 40°46' W 073°56'5 4.7
2014-Oct-27 21:33N 40°42' W 073°60'6 5.7
2014-Oct-27 20:33N 40°37' W 074°03'3 3.2
2014-Oct-27 19:33N 40°34' W 074°02'4 3.6
2014-Oct-27 18:26N 40°31' W 073°59'4 4.0
2014-Oct-27 17:21N 40°28' W 073°55'31 6.3
2014-Oct-27 12:22N 39°57' W 073°55'6 6.4
2014-Oct-27 11:30N 39°51' W 073°56'6 6.4
2014-Oct-27 10:33N 39°45' W 073°58'7 6.6
2014-Oct-27 09:33N 39°39' W 074°02'7 6.8
2014-Oct-27 08:33N 39°33' W 074°05'7 7.1
2014-Oct-27 07:33N 39°27' W 074°10'57 4.4
2014-Oct-26 18:31N 39°18' W 075°23'7 7.2
2014-Oct-26 17:33N 39°23' W 075°29'6 5.9
2014-Oct-26 16:33N 39°28' W 075°34'5 5.2
2014-Oct-26 15:33N 39°33' W 075°33'8 8.2
2014-Oct-26 14:33N 39°33' W 075°43'25 8.1
2014-Oct-26 11:24N 39°20' W 076°12'7 7.9
2014-Oct-26 10:32N 39°13' W 076°15'7 7.3
2014-Oct-26 09:33N 39°07' W 076°20'7 7.3
2014-Oct-26 08:33N 39°00' W 076°23'53 7.3
2014-Oct-26 01:15N 38°08' W 076°16'5 7.7
2014-Oct-26 00:33N 38°02' W 076°14'  
2014-Oct-21 10:18N 34°29' W 076°14'6 7.9
2014-Oct-21 09:33N 34°25' W 076°19'8 8.0
2014-Oct-21 08:33N 34°21' W 076°27'  
Track history (hours):
 
Tides and Currents Weather Stations Pressure Air Temp Water Temp Dewpoint Dewpoint Depression Visibility Wind Speed Wind Dir Waves Ship Positions

Coral Coast

Owner: Dann MarineTowing, LC., Chesapeake City, MD. More information available from US FCC via Universal Licensing System and Coast Guard Vessel Documentation Center.

Last reported at 2014-Oct-29 16:12 UTC. Time now 2014-Oct-31 23:08 UTC.
Position N 39°21' W 074°15'.

Length 70 m; draft 5.3 m.

Type: Tug. MMSI: 367459570.

Date/timePositionNaut miles runAvg speedWind from/ knotsBaromVisibWave heightAir tempDewpointWater temp
2014-Oct-29 16:12N 39°21' W 074°15'6 8.5
2014-Oct-29 15:33N 39°26' W 074°11'9 8.6
2014-Oct-29 14:33N 39°33' W 074°05'9 8.8
2014-Oct-29 13:33N 39°41' W 074°00'9 8.8
2014-Oct-29 12:31N 39°50' W 073°57'28 9.0
2014-Oct-29 09:21N 40°18' W 073°54'7 9.1
2014-Oct-29 08:33N 40°26' W 073°54'8 8.5
2014-Oct-29 07:33N 40°32' W 074°01'8 8.2
2014-Oct-29 06:33N 40°40' W 074°01'8 7.6
2014-Oct-29 05:34N 40°47' W 073°56'4 3.5
2014-Oct-29 04:31N 40°47' W 073°51'1 0.6
2014-Oct-29 03:10N 40°46' W 073°51'0 0.0
2014-Oct-29 02:33N 40°46' W 073°51'0 0.0
2014-Oct-29 01:33N 40°46' W 073°51'0 0.0
2014-Oct-29 00:33N 40°46' W 073°51'0 0.0
2014-Oct-28 23:27N 40°46' W 073°51'0 0.0
2014-Oct-28 22:33N 40°46' W 073°51'1 0.6
2014-Oct-28 21:33N 40°46' W 073°51'6 5.7
2014-Oct-28 20:33N 40°44' W 073°58'9 8.7
2014-Oct-28 19:33N 40°39' W 074°07'0 0.2
2014-Oct-28 18:33N 40°39' W 074°07'1 1.3
2014-Oct-28 17:33N 40°39' W 074°09'6 6.3
2014-Oct-28 16:33N 40°40' W 074°01'0 0.0
2014-Oct-28 15:33N 40°40' W 074°01'0 0.0
2014-Oct-28 14:33N 40°40' W 074°01'0 0.0
2014-Oct-28 13:33N 40°40' W 074°01'0 0.0
2014-Oct-28 12:33N 40°40' W 074°01'8 7.5
2014-Oct-28 11:33N 40°47' W 073°56'4 4.2
2014-Oct-28 10:33N 40°46' W 073°51'0 0.0
2014-Oct-28 09:33N 40°46' W 073°51'0 0.0
2014-Oct-28 08:31N 40°46' W 073°51'0 0.0
2014-Oct-28 07:33N 40°46' W 073°51'0 0.0
2014-Oct-28 06:33N 40°46' W 073°51'0 0.0
2014-Oct-28 05:33N 40°46' W 073°51'2 2.3
2014-Oct-28 04:33N 40°48' W 073°50'0 0.1
2014-Oct-28 03:33N 40°48' W 073°50'0 0.2
2014-Oct-28 02:33N 40°48' W 073°50'1 0.5
2014-Oct-28 01:32N 40°48' W 073°49'1 0.5
2014-Oct-28 00:32N 40°48' W 073°49'2 2.5
2014-Oct-27 23:33N 40°48' W 073°52'4 3.7
2014-Oct-27 22:33N 40°46' W 073°56'5 4.7
2014-Oct-27 21:33N 40°42' W 073°60'6 5.7
2014-Oct-27 20:33N 40°37' W 074°03'3 3.2
2014-Oct-27 19:33N 40°34' W 074°02'4 3.6
2014-Oct-27 18:26N 40°31' W 073°59'4 4.0
2014-Oct-27 17:21N 40°28' W 073°55'31 6.3
2014-Oct-27 12:22N 39°57' W 073°55'6 6.4
2014-Oct-27 11:30N 39°51' W 073°56'6 6.4
2014-Oct-27 10:33N 39°45' W 073°58'7 6.6
2014-Oct-27 09:33N 39°39' W 074°02'7 6.8
2014-Oct-27 08:33N 39°33' W 074°05'7 7.1
2014-Oct-27 07:33N 39°27' W 074°10'57 4.4
2014-Oct-26 18:31N 39°18' W 075°23'7 7.2
2014-Oct-26 17:33N 39°23' W 075°29'6 5.9
2014-Oct-26 16:33N 39°28' W 075°34'5 5.2
2014-Oct-26 15:33N 39°33' W 075°33'8 8.2
2014-Oct-26 14:33N 39°33' W 075°43'25 8.1
2014-Oct-26 11:24N 39°20' W 076°12'7 7.9
2014-Oct-26 10:32N 39°13' W 076°15'7 7.3
2014-Oct-26 09:33N 39°07' W 076°20'7 7.3
2014-Oct-26 08:33N 39°00' W 076°23'53 7.3
2014-Oct-26 01:15N 38°08' W 076°16'5 7.7
2014-Oct-26 00:33N 38°02' W 076°14'  
2014-Oct-21 10:18N 34°29' W 076°14'6 7.9
2014-Oct-21 09:33N 34°25' W 076°19'8 8.0
2014-Oct-21 08:33N 34°21' W 076°27'  

Dump ship's entire track history